sensor_id;sensor_type;location;lat;lon;timestamp;temperature;humidity
14475;DHT22;7323;50.848;4.334;2023-05-07T00:01:19;19.00;1.00
14475;DHT22;7323;50.848;4.334;2023-05-07T00:03:45;19.10;1.00
14475;DHT22;7323;50.848;4.334;2023-05-07T00:06:10;19.10;1.00
14475;DHT22;7323;50.848;4.334;2023-05-07T00:08:38;19.10;1.00
14475;DHT22;7323;50.848;4.334;2023-05-07T00:11:03;19.10;1.00
14475;DHT22;7323;50.848;4.334;2023-05-07T00:13:30;19.10;1.00
14475;DHT22;7323;50.848;4.334;2023-05-07T00:16:03;19.10;1.00
14475;DHT22;7323;50.848;4.334;2023-05-07T00:18:29;19.20;1.00
14475;DHT22;7323;50.848;4.334;2023-05-07T00:20:56;19.20;1.00
14475;DHT22;7323;50.848;4.334;2023-05-07T00:23:22;19.10;1.00
14475;DHT22;7323;50.848;4.334;2023-05-07T00:25:48;19.10;1.00
14475;DHT22;7323;50.848;4.334;2023-05-07T00:28:14;18.90;1.00
14475;DHT22;7323;50.848;4.334;2023-05-07T00:30:40;18.90;1.00
14475;DHT22;7323;50.848;4.334;2023-05-07T00:33:06;18.90;1.00
14475;DHT22;7323;50.848;4.334;2023-05-07T00:35:32;19.00;1.00
14475;DHT22;7323;50.848;4.334;2023-05-07T00:37:58;19.00;1.00
14475;DHT22;7323;50.848;4.334;2023-05-07T00:40:24;19.00;1.00
14475;DHT22;7323;50.848;4.334;2023-05-07T00:42:55;19.10;1.00
14475;DHT22;7323;50.848;4.334;2023-05-07T00:45:27;19.10;1.00
14475;DHT22;7323;50.848;4.334;2023-05-07T00:47:59;19.20;1.00
14475;DHT22;7323;50.848;4.334;2023-05-07T00:50:43;19.20;1.00
14475;DHT22;7323;50.848;4.334;2023-05-07T00:53:09;19.30;1.00
14475;DHT22;7323;50.848;4.334;2023-05-07T00:55:38;19.20;1.00
14475;DHT22;7323;50.848;4.334;2023-05-07T00:58:04;19.10;1.00
14475;DHT22;7323;50.848;4.334;2023-05-07T01:00:32;19.00;1.00
14475;DHT22;7323;50.848;4.334;2023-05-07T01:02:58;19.00;1.00
14475;DHT22;7323;50.848;4.334;2023-05-07T01:05:24;19.00;1.00
14475;DHT22;7323;50.848;4.334;2023-05-07T01:07:53;19.10;1.00
14475;DHT22;7323;50.848;4.334;2023-05-07T01:10:20;19.10;1.00
14475;DHT22;7323;50.848;4.334;2023-05-07T01:12:47;19.10;1.00
14475;DHT22;7323;50.848;4.334;2023-05-07T01:15:14;19.10;1.00
14475;DHT22;7323;50.848;4.334;2023-05-07T01:17:41;19.10;1.00
14475;DHT22;7323;50.848;4.334;2023-05-07T01:20:08;19.10;1.00
14475;DHT22;7323;50.848;4.334;2023-05-07T01:22:37;19.10;1.00
14475;DHT22;7323;50.848;4.334;2023-05-07T01:25:05;19.00;1.00
14475;DHT22;7323;50.848;4.334;2023-05-07T01:27:31;19.00;1.00
14475;DHT22;7323;50.848;4.334;2023-05-07T01:29:58;19.00;1.00
14475;DHT22;7323;50.848;4.334;2023-05-07T01:32:35;18.80;1.00
14475;DHT22;7323;50.848;4.334;2023-05-07T01:35:02;18.70;1.00
14475;DHT22;7323;50.848;4.334;2023-05-07T01:37:30;18.60;1.00
14475;DHT22;7323;50.848;4.334;2023-05-07T01:39:56;18.60;1.00
14475;DHT22;7323;50.848;4.334;2023-05-07T01:42:23;18.70;1.00
14475;DHT22;7323;50.848;4.334;2023-05-07T01:44:51;18.80;1.00
14475;DHT22;7323;50.848;4.334;2023-05-07T01:47:17;18.80;1.00
14475;DHT22;7323;50.848;4.334;2023-05-07T01:49:42;18.80;1.00
14475;DHT22;7323;50.848;4.334;2023-05-07T01:52:10;18.70;1.00
14475;DHT22;7323;50.848;4.334;2023-05-07T01:54:36;18.60;1.00
14475;DHT22;7323;50.848;4.334;2023-05-07T01:57:04;18.70;1.00
14475;DHT22;7323;50.848;4.334;2023-05-07T01:59:33;18.70;1.00
14475;DHT22;7323;50.848;4.334;2023-05-07T02:02:04;18.70;1.00
14475;DHT22;7323;50.848;4.334;2023-05-07T02:04:29;18.80;1.00
14475;DHT22;7323;50.848;4.334;2023-05-07T02:06:55;18.80;1.00
14475;DHT22;7323;50.848;4.334;2023-05-07T02:09:21;18.90;1.00
14475;DHT22;7323;50.848;4.334;2023-05-07T02:11:47;18.90;1.00
14475;DHT22;7323;50.848;4.334;2023-05-07T02:14:13;19.00;1.00
14475;DHT22;7323;50.848;4.334;2023-05-07T02:16:39;19.00;1.00
14475;DHT22;7323;50.848;4.334;2023-05-07T02:19:05;18.90;1.00
14475;DHT22;7323;50.848;4.334;2023-05-07T02:21:30;18.90;1.00
14475;DHT22;7323;50.848;4.334;2023-05-07T02:23:56;18.90;1.00
14475;DHT22;7323;50.848;4.334;2023-05-07T02:26:23;18.80;1.00
14475;DHT22;7323;50.848;4.334;2023-05-07T02:28:48;18.80;1.00
14475;DHT22;7323;50.848;4.334;2023-05-07T02:31:14;18.80;1.00
14475;DHT22;7323;50.848;4.334;2023-05-07T02:33:40;18.90;1.00
14475;DHT22;7323;50.848;4.334;2023-05-07T02:36:09;18.80;1.00
14475;DHT22;7323;50.848;4.334;2023-05-07T02:38:36;18.80;1.00
14475;DHT22;7323;50.848;4.334;2023-05-07T02:41:01;18.60;1.00
14475;DHT22;7323;50.848;4.334;2023-05-07T02:43:27;18.60;1.00
14475;DHT22;7323;50.848;4.334;2023-05-07T02:46:04;18.50;1.00
14475;DHT22;7323;50.848;4.334;2023-05-07T02:48:30;18.60;1.00
14475;DHT22;7323;50.848;4.334;2023-05-07T02:50:56;18.60;1.00
14475;DHT22;7323;50.848;4.334;2023-05-07T02:53:21;18.50;1.00
14475;DHT22;7323;50.848;4.334;2023-05-07T02:55:47;18.60;1.00
14475;DHT22;7323;50.848;4.334;2023-05-07T02:58:13;18.60;1.00
14475;DHT22;7323;50.848;4.334;2023-05-07T03:00:38;18.60;1.00
14475;DHT22;7323;50.848;4.334;2023-05-07T03:03:04;18.70;1.00
14475;DHT22;7323;50.848;4.334;2023-05-07T03:05:30;18.60;1.00
14475;DHT22;7323;50.848;4.334;2023-05-07T03:07:55;18.60;1.00
14475;DHT22;7323;50.848;4.334;2023-05-07T03:10:21;18.70;1.00
14475;DHT22;7323;50.848;4.334;2023-05-07T03:12:47;18.70;1.00
14475;DHT22;7323;50.848;4.334;2023-05-07T03:15:12;18.60;1.00
14475;DHT22;7323;50.848;4.334;2023-05-07T03:17:38;18.60;1.00
14475;DHT22;7323;50.848;4.334;2023-05-07T03:20:05;18.50;1.00
14475;DHT22;7323;50.848;4.334;2023-05-07T03:22:36;18.50;1.00
14475;DHT22;7323;50.848;4.334;2023-05-07T03:25:02;18.50;1.00
14475;DHT22;7323;50.848;4.334;2023-05-07T03:27:28;18.60;1.00
14475;DHT22;7323;50.848;4.334;2023-05-07T03:29:54;18.60;1.00
14475;DHT22;7323;50.848;4.334;2023-05-07T03:32:20;18.60;1.00
14475;DHT22;7323;50.848;4.334;2023-05-07T03:34:46;18.60;1.00
14475;DHT22;7323;50.848;4.334;2023-05-07T03:37:11;18.60;1.00
14475;DHT22;7323;50.848;4.334;2023-05-07T03:39:38;18.70;1.00
14475;DHT22;7323;50.848;4.334;2023-05-07T03:42:04;18.70;1.00
14475;DHT22;7323;50.848;4.334;2023-05-07T03:44:29;18.70;1.00
14475;DHT22;7323;50.848;4.334;2023-05-07T03:46:56;18.70;1.00
14475;DHT22;7323;50.848;4.334;2023-05-07T03:49:22;18.70;1.00
14475;DHT22;7323;50.848;4.334;2023-05-07T03:51:48;18.60;1.00
14475;DHT22;7323;50.848;4.334;2023-05-07T03:54:13;18.60;1.00
14475;DHT22;7323;50.848;4.334;2023-05-07T03:56:39;18.60;1.00
14475;DHT22;7323;50.848;4.334;2023-05-07T03:59:08;18.70;1.00
14475;DHT22;7323;50.848;4.334;2023-05-07T04:01:37;18.70;1.00
14475;DHT22;7323;50.848;4.334;2023-05-07T04:04:03;18.70;1.00
14475;DHT22;7323;50.848;4.334;2023-05-07T04:06:30;18.70;1.00
14475;DHT22;7323;50.848;4.334;2023-05-07T04:08:56;18.70;1.00
14475;DHT22;7323;50.848;4.334;2023-05-07T04:11:22;18.70;1.00
14475;DHT22;7323;50.848;4.334;2023-05-07T04:13:48;18.70;1.00
14475;DHT22;7323;50.848;4.334;2023-05-07T04:16:14;18.50;1.00
14475;DHT22;7323;50.848;4.334;2023-05-07T04:18:40;18.50;1.00
14475;DHT22;7323;50.848;4.334;2023-05-07T04:21:15;18.40;1.00
14475;DHT22;7323;50.848;4.334;2023-05-07T04:23:41;18.40;1.00
14475;DHT22;7323;50.848;4.334;2023-05-07T04:26:07;18.50;1.00
14475;DHT22;7323;50.848;4.334;2023-05-07T04:28:32;18.50;1.00
14475;DHT22;7323;50.848;4.334;2023-05-07T04:30:58;18.50;1.00
14475;DHT22;7323;50.848;4.334;2023-05-07T04:33:24;18.60;1.00
14475;DHT22;7323;50.848;4.334;2023-05-07T04:35:49;18.50;1.00
14475;DHT22;7323;50.848;4.334;2023-05-07T04:38:15;18.50;1.00
14475;DHT22;7323;50.848;4.334;2023-05-07T04:40:49;18.50;1.00
14475;DHT22;7323;50.848;4.334;2023-05-07T04:43:14;18.50;1.00
14475;DHT22;7323;50.848;4.334;2023-05-07T04:45:41;18.40;1.00
14475;DHT22;7323;50.848;4.334;2023-05-07T04:48:09;18.40;1.00
14475;DHT22;7323;50.848;4.334;2023-05-07T04:50:36;18.40;1.00
14475;DHT22;7323;50.848;4.334;2023-05-07T04:53:02;18.50;1.00
14475;DHT22;7323;50.848;4.334;2023-05-07T04:55:28;18.40;1.00
14475;DHT22;7323;50.848;4.334;2023-05-07T04:57:54;18.40;1.00
14475;DHT22;7323;50.848;4.334;2023-05-07T05:00:19;18.40;1.00
14475;DHT22;7323;50.848;4.334;2023-05-07T05:02:48;18.40;1.00
14475;DHT22;7323;50.848;4.334;2023-05-07T05:05:17;18.40;1.00
14475;DHT22;7323;50.848;4.334;2023-05-07T05:07:43;18.50;1.00
14475;DHT22;7323;50.848;4.334;2023-05-07T05:10:08;18.50;1.00
14475;DHT22;7323;50.848;4.334;2023-05-07T05:12:34;18.50;1.00
14475;DHT22;7323;50.848;4.334;2023-05-07T05:15:00;18.50;1.00
14475;DHT22;7323;50.848;4.334;2023-05-07T05:17:25;18.60;1.00
14475;DHT22;7323;50.848;4.334;2023-05-07T05:19:52;18.70;1.00
14475;DHT22;7323;50.848;4.334;2023-05-07T05:22:18;18.80;1.00
14475;DHT22;7323;50.848;4.334;2023-05-07T05:24:44;18.80;1.00
14475;DHT22;7323;50.848;4.334;2023-05-07T05:27:10;18.80;1.00
14475;DHT22;7323;50.848;4.334;2023-05-07T05:29:36;18.90;1.00
14475;DHT22;7323;50.848;4.334;2023-05-07T05:32:02;18.90;1.00
14475;DHT22;7323;50.848;4.334;2023-05-07T05:34:27;18.90;1.00
14475;DHT22;7323;50.848;4.334;2023-05-07T05:36:53;19.00;1.00
14475;DHT22;7323;50.848;4.334;2023-05-07T05:39:19;19.00;1.00
14475;DHT22;7323;50.848;4.334;2023-05-07T05:41:44;19.10;1.00
14475;DHT22;7323;50.848;4.334;2023-05-07T05:44:12;19.10;1.00
14475;DHT22;7323;50.848;4.334;2023-05-07T05:46:38;19.20;1.00
14475;DHT22;7323;50.848;4.334;2023-05-07T05:49:04;19.20;1.00
14475;DHT22;7323;50.848;4.334;2023-05-07T05:51:30;19.20;1.00
14475;DHT22;7323;50.848;4.334;2023-05-07T05:53:56;19.10;1.00
14475;DHT22;7323;50.848;4.334;2023-05-07T05:56:21;18.80;1.00
14475;DHT22;7323;50.848;4.334;2023-05-07T05:58:47;18.60;1.00
14475;DHT22;7323;50.848;4.334;2023-05-07T06:01:13;18.40;1.00
14475;DHT22;7323;50.848;4.334;2023-05-07T06:03:39;18.10;1.00
14475;DHT22;7323;50.848;4.334;2023-05-07T06:06:05;17.80;4.80
14475;DHT22;7323;50.848;4.334;2023-05-07T06:08:31;17.80;4.70
14475;DHT22;7323;50.848;4.334;2023-05-07T06:10:58;17.90;3.70
14475;DHT22;7323;50.848;4.334;2023-05-07T06:13:24;17.80;7.60
14475;DHT22;7323;50.848;4.334;2023-05-07T06:15:50;17.60;13.80
14475;DHT22;7323;50.848;4.334;2023-05-07T06:18:15;17.70;12.50
14475;DHT22;7323;50.848;4.334;2023-05-07T06:20:41;17.70;14.20
14475;DHT22;7323;50.848;4.334;2023-05-07T06:23:08;17.70;17.10
14475;DHT22;7323;50.848;4.334;2023-05-07T06:25:33;17.60;20.30
14475;DHT22;7323;50.848;4.334;2023-05-07T06:28:01;17.40;29.10
14475;DHT22;7323;50.848;4.334;2023-05-07T06:30:27;17.50;28.40
14475;DHT22;7323;50.848;4.334;2023-05-07T06:32:52;17.60;27.60
14475;DHT22;7323;50.848;4.334;2023-05-07T06:35:20;17.50;31.30
14475;DHT22;7323;50.848;4.334;2023-05-07T06:37:46;17.60;30.00
14475;DHT22;7323;50.848;4.334;2023-05-07T06:40:12;17.50;33.60
14475;DHT22;7323;50.848;4.334;2023-05-07T06:42:39;17.60;35.20
14475;DHT22;7323;50.848;4.334;2023-05-07T06:45:08;17.70;32.90
14475;DHT22;7323;50.848;4.334;2023-05-07T06:47:35;17.60;38.00
14475;DHT22;7323;50.848;4.334;2023-05-07T06:50:02;17.60;40.00
14475;DHT22;7323;50.848;4.334;2023-05-07T06:52:27;17.60;40.60
14475;DHT22;7323;50.848;4.334;2023-05-07T06:54:53;17.60;44.70
14475;DHT22;7323;50.848;4.334;2023-05-07T06:57:19;17.70;43.70
14475;DHT22;7323;50.848;4.334;2023-05-07T06:59:44;17.70;47.00
14475;DHT22;7323;50.848;4.334;2023-05-07T07:02:10;17.40;56.10
14475;DHT22;7323;50.848;4.334;2023-05-07T07:04:36;17.40;59.80
14475;DHT22;7323;50.848;4.334;2023-05-07T07:07:03;17.40;58.60
14475;DHT22;7323;50.848;4.334;2023-05-07T07:09:29;17.30;63.00
14475;DHT22;7323;50.848;4.334;2023-05-07T07:11:56;17.30;67.70
14475;DHT22;7323;50.848;4.334;2023-05-07T07:14:23;17.10;74.40
14475;DHT22;7323;50.848;4.334;2023-05-07T07:16:48;17.00;79.40
14475;DHT22;7323;50.848;4.334;2023-05-07T07:19:14;17.00;83.10
14475;DHT22;7323;50.848;4.334;2023-05-07T07:21:43;17.00;86.70
14475;DHT22;7323;50.848;4.334;2023-05-07T07:24:10;17.00;91.10
14475;DHT22;7323;50.848;4.334;2023-05-07T07:26:35;17.00;90.00
14475;DHT22;7323;50.848;4.334;2023-05-07T07:29:01;17.10;89.00
14475;DHT22;7323;50.848;4.334;2023-05-07T07:31:27;17.10;87.40
14475;DHT22;7323;50.848;4.334;2023-05-07T07:33:52;17.20;90.00
14475;DHT22;7323;50.848;4.334;2023-05-07T07:36:18;17.20;91.80
14475;DHT22;7323;50.848;4.334;2023-05-07T07:38:44;17.20;92.10
14475;DHT22;7323;50.848;4.334;2023-05-07T07:41:11;17.20;91.10
14475;DHT22;7323;50.848;4.334;2023-05-07T07:43:36;17.20;93.40
14475;DHT22;7323;50.848;4.334;2023-05-07T07:46:02;17.30;95.10
14475;DHT22;7323;50.848;4.334;2023-05-07T07:48:28;17.30;96.00
14475;DHT22;7323;50.848;4.334;2023-05-07T07:50:53;17.30;97.40
14475;DHT22;7323;50.848;4.334;2023-05-07T07:53:20;17.40;96.30
14475;DHT22;7323;50.848;4.334;2023-05-07T07:55:46;17.60;92.60
14475;DHT22;7323;50.848;4.334;2023-05-07T07:58:11;17.60;92.30
14475;DHT22;7323;50.848;4.334;2023-05-07T08:00:37;17.60;93.20
14475;DHT22;7323;50.848;4.334;2023-05-07T08:03:03;17.80;91.60
14475;DHT22;7323;50.848;4.334;2023-05-07T08:05:29;17.70;92.40
14475;DHT22;7323;50.848;4.334;2023-05-07T08:07:55;17.70;93.20
14475;DHT22;7323;50.848;4.334;2023-05-07T08:10:23;17.70;93.00
14475;DHT22;7323;50.848;4.334;2023-05-07T08:12:49;17.70;91.00
14475;DHT22;7323;50.848;4.334;2023-05-07T08:15:15;17.70;92.60
14475;DHT22;7323;50.848;4.334;2023-05-07T08:17:41;17.60;95.60
14475;DHT22;7323;50.848;4.334;2023-05-07T08:20:07;17.50;97.70
14475;DHT22;7323;50.848;4.334;2023-05-07T08:22:35;17.60;99.00
14475;DHT22;7323;50.848;4.334;2023-05-07T08:25:01;17.60;95.20
14475;DHT22;7323;50.848;4.334;2023-05-07T08:27:27;17.70;93.30
14475;DHT22;7323;50.848;4.334;2023-05-07T08:29:53;17.70;95.40
14475;DHT22;7323;50.848;4.334;2023-05-07T08:32:21;17.60;96.10
14475;DHT22;7323;50.848;4.334;2023-05-07T08:34:47;17.70;96.60
14475;DHT22;7323;50.848;4.334;2023-05-07T08:37:14;17.60;98.50
14475;DHT22;7323;50.848;4.334;2023-05-07T08:39:40;17.60;99.90
14475;DHT22;7323;50.848;4.334;2023-05-07T08:42:06;17.60;99.00
14475;DHT22;7323;50.848;4.334;2023-05-07T08:44:34;17.70;92.80
14475;DHT22;7323;50.848;4.334;2023-05-07T08:47:02;17.80;91.10
14475;DHT22;7323;50.848;4.334;2023-05-07T08:49:31;17.80;91.80
14475;DHT22;7323;50.848;4.334;2023-05-07T08:51:59;17.80;95.00
14475;DHT22;7323;50.848;4.334;2023-05-07T08:54:26;17.90;95.20
14475;DHT22;7323;50.848;4.334;2023-05-07T08:56:53;18.00;95.20
14475;DHT22;7323;50.848;4.334;2023-05-07T08:59:19;18.10;95.10
14475;DHT22;7323;50.848;4.334;2023-05-07T09:01:45;18.00;95.40
14475;DHT22;7323;50.848;4.334;2023-05-07T09:04:11;18.10;95.50
14475;DHT22;7323;50.848;4.334;2023-05-07T09:06:39;18.20;94.70
14475;DHT22;7323;50.848;4.334;2023-05-07T09:09:09;18.30;94.90
14475;DHT22;7323;50.848;4.334;2023-05-07T09:11:37;18.40;93.10
14475;DHT22;7323;50.848;4.334;2023-05-07T09:14:03;18.50;92.10
14475;DHT22;7323;50.848;4.334;2023-05-07T09:16:31;18.60;91.20
14475;DHT22;7323;50.848;4.334;2023-05-07T09:18:58;18.40;90.30
14475;DHT22;7323;50.848;4.334;2023-05-07T09:21:25;18.20;91.50
14475;DHT22;7323;50.848;4.334;2023-05-07T09:23:52;18.20;92.80
14475;DHT22;7323;50.848;4.334;2023-05-07T09:26:21;18.20;93.30
14475;DHT22;7323;50.848;4.334;2023-05-07T09:28:48;18.20;93.30
14475;DHT22;7323;50.848;4.334;2023-05-07T09:31:14;18.20;93.90
14475;DHT22;7323;50.848;4.334;2023-05-07T09:33:40;18.40;92.60
14475;DHT22;7323;50.848;4.334;2023-05-07T09:36:07;18.60;90.30
14475;DHT22;7323;50.848;4.334;2023-05-07T09:38:35;18.80;89.20
14475;DHT22;7323;50.848;4.334;2023-05-07T09:41:11;18.90;87.10
14475;DHT22;7323;50.848;4.334;2023-05-07T09:43:40;19.00;85.40
14475;DHT22;7323;50.848;4.334;2023-05-07T09:46:13;19.10;84.70
14475;DHT22;7323;50.848;4.334;2023-05-07T09:48:41;19.20;82.60
14475;DHT22;7323;50.848;4.334;2023-05-07T09:54:43;19.30;68.40
14475;DHT22;7323;50.848;4.334;2023-05-07T09:57:11;19.30;65.90
14475;DHT22;7323;50.848;4.334;2023-05-07T09:59:38;19.30;65.20
14475;DHT22;7323;50.848;4.334;2023-05-07T10:02:04;19.20;65.90
14475;DHT22;7323;50.848;4.334;2023-05-07T10:04:31;19.00;71.40
14475;DHT22;7323;50.848;4.334;2023-05-07T10:06:58;19.00;77.50
14475;DHT22;7323;50.848;4.334;2023-05-07T10:09:26;18.80;79.50
14475;DHT22;7323;50.848;4.334;2023-05-07T10:11:52;18.80;82.30
14475;DHT22;7323;50.848;4.334;2023-05-07T10:14:38;18.80;87.40
14475;DHT22;7323;50.848;4.334;2023-05-07T10:17:04;18.80;83.30
14475;DHT22;7323;50.848;4.334;2023-05-07T10:19:32;18.60;87.40
14475;DHT22;7323;50.848;4.334;2023-05-07T10:22:02;18.40;92.00
14475;DHT22;7323;50.848;4.334;2023-05-07T10:24:32;18.40;94.80
14475;DHT22;7323;50.848;4.334;2023-05-07T10:27:10;18.60;93.80
14475;DHT22;7323;50.848;4.334;2023-05-07T10:32:33;18.90;83.20
14475;DHT22;7323;50.848;4.334;2023-05-07T10:35:05;19.00;83.10
14475;DHT22;7323;50.848;4.334;2023-05-07T10:37:32;18.90;90.30
14475;DHT22;7323;50.848;4.334;2023-05-07T10:39:58;18.80;93.20
14475;DHT22;7323;50.848;4.334;2023-05-07T10:42:27;18.90;92.80
14475;DHT22;7323;50.848;4.334;2023-05-07T10:45:12;18.90;93.50
14475;DHT22;7323;50.848;4.334;2023-05-07T10:48:14;18.90;93.10
14475;DHT22;7323;50.848;4.334;2023-05-07T10:50:44;19.10;92.00
14475;DHT22;7323;50.848;4.334;2023-05-07T10:53:23;19.20;91.50
14475;DHT22;7323;50.848;4.334;2023-05-07T10:56:28;19.10;90.60
14475;DHT22;7323;50.848;4.334;2023-05-07T10:58:55;19.10;90.20
14475;DHT22;7323;50.848;4.334;2023-05-07T11:01:54;19.20;84.40
14475;DHT22;7323;50.848;4.334;2023-05-07T11:04:21;19.40;79.10
14475;DHT22;7323;50.848;4.334;2023-05-07T11:15:38;19.80;64.80
14475;DHT22;7323;50.848;4.334;2023-05-07T11:18:45;19.80;60.80
14475;DHT22;7323;50.848;4.334;2023-05-07T11:21:38;19.70;67.10
14475;DHT22;7323;50.848;4.334;2023-05-07T11:24:09;19.50;72.80
14475;DHT22;7323;50.848;4.334;2023-05-07T11:26:55;19.70;70.20
14475;DHT22;7323;50.848;4.334;2023-05-07T11:29:21;19.60;60.00
14475;DHT22;7323;50.848;4.334;2023-05-07T11:31:54;19.80;61.50
14475;DHT22;7323;50.848;4.334;2023-05-07T11:34:25;19.70;63.70
14475;DHT22;7323;50.848;4.334;2023-05-07T11:36:53;19.80;57.50
14475;DHT22;7323;50.848;4.334;2023-05-07T11:39:31;19.60;54.90
14475;DHT22;7323;50.848;4.334;2023-05-07T11:41:59;19.40;62.50
14475;DHT22;7323;50.848;4.334;2023-05-07T11:44:38;19.30;71.40
14475;DHT22;7323;50.848;4.334;2023-05-07T11:47:05;19.10;83.20
14475;DHT22;7323;50.848;4.334;2023-05-07T11:49:31;19.10;89.30
14475;DHT22;7323;50.848;4.334;2023-05-07T11:51:58;19.20;79.00
14475;DHT22;7323;50.848;4.334;2023-05-07T11:54:24;19.20;80.60
14475;DHT22;7323;50.848;4.334;2023-05-07T11:56:49;19.30;77.70
14475;DHT22;7323;50.848;4.334;2023-05-07T11:59:20;19.30;78.70
14475;DHT22;7323;50.848;4.334;2023-05-07T12:01:47;19.50;76.70
14475;DHT22;7323;50.848;4.334;2023-05-07T12:04:12;19.70;68.60
14475;DHT22;7323;50.848;4.334;2023-05-07T12:06:39;19.70;68.20
14475;DHT22;7323;50.848;4.334;2023-05-07T12:09:04;19.60;72.80
14475;DHT22;7323;50.848;4.334;2023-05-07T12:11:32;19.40;75.20
14475;DHT22;7323;50.848;4.334;2023-05-07T12:14:00;19.30;76.50
14475;DHT22;7323;50.848;4.334;2023-05-07T12:16:27;19.30;79.40
14475;DHT22;7323;50.848;4.334;2023-05-07T12:18:53;19.30;81.50
14475;DHT22;7323;50.848;4.334;2023-05-07T12:21:20;19.50;82.30
14475;DHT22;7323;50.848;4.334;2023-05-07T12:23:46;19.60;71.20
14475;DHT22;7323;50.848;4.334;2023-05-07T12:26:14;19.70;64.50
14475;DHT22;7323;50.848;4.334;2023-05-07T12:28:40;19.70;62.60
14475;DHT22;7323;50.848;4.334;2023-05-07T12:31:06;19.60;67.80
14475;DHT22;7323;50.848;4.334;2023-05-07T12:33:32;19.70;64.40
14475;DHT22;7323;50.848;4.334;2023-05-07T12:36:04;19.90;59.00
14475;DHT22;7323;50.848;4.334;2023-05-07T12:38:35;19.90;57.10
14475;DHT22;7323;50.848;4.334;2023-05-07T12:41:01;19.90;58.10
14475;DHT22;7323;50.848;4.334;2023-05-07T12:43:28;19.90;60.30
14475;DHT22;7323;50.848;4.334;2023-05-07T12:46:01;19.70;67.40
14475;DHT22;7323;50.848;4.334;2023-05-07T12:48:29;19.70;65.30
14475;DHT22;7323;50.848;4.334;2023-05-07T12:50:56;19.80;64.40
14475;DHT22;7323;50.848;4.334;2023-05-07T12:53:25;20.00;63.80
14475;DHT22;7323;50.848;4.334;2023-05-07T12:55:55;20.10;63.70
14475;DHT22;7323;50.848;4.334;2023-05-07T12:58:30;20.10;62.40
14475;DHT22;7323;50.848;4.334;2023-05-07T13:00:58;20.30;57.70
14475;DHT22;7323;50.848;4.334;2023-05-07T13:03:48;20.40;52.60
14475;DHT22;7323;50.848;4.334;2023-05-07T13:06:13;20.40;54.20
14475;DHT22;7323;50.848;4.334;2023-05-07T13:08:41;20.50;52.50
14475;DHT22;7323;50.848;4.334;2023-05-07T13:11:11;20.50;51.90
14475;DHT22;7323;50.848;4.334;2023-05-07T13:13:40;20.60;46.70
14475;DHT22;7323;50.848;4.334;2023-05-07T13:16:10;20.70;42.10
14475;DHT22;7323;50.848;4.334;2023-05-07T13:18:38;20.50;33.80
14475;DHT22;7323;50.848;4.334;2023-05-07T13:21:23;20.50;32.70
14475;DHT22;7323;50.848;4.334;2023-05-07T13:23:49;20.40;36.40
14475;DHT22;7323;50.848;4.334;2023-05-07T13:26:15;20.30;41.60
14475;DHT22;7323;50.848;4.334;2023-05-07T13:28:40;20.10;49.20
14475;DHT22;7323;50.848;4.334;2023-05-07T13:31:07;20.10;53.90
14475;DHT22;7323;50.848;4.334;2023-05-07T13:33:33;19.90;58.70
14475;DHT22;7323;50.848;4.334;2023-05-07T13:35:58;19.90;57.80
14475;DHT22;7323;50.848;4.334;2023-05-07T13:38:26;19.80;56.00
14475;DHT22;7323;50.848;4.334;2023-05-07T13:40:52;19.90;54.50
14475;DHT22;7323;50.848;4.334;2023-05-07T13:43:19;20.00;50.20
14475;DHT22;7323;50.848;4.334;2023-05-07T13:45:57;20.10;44.30
14475;DHT22;7323;50.848;4.334;2023-05-07T13:48:24;20.20;45.50
14475;DHT22;7323;50.848;4.334;2023-05-07T13:50:55;20.10;45.60
14475;DHT22;7323;50.848;4.334;2023-05-07T13:53:28;20.10;47.10
14475;DHT22;7323;50.848;4.334;2023-05-07T13:55:57;20.00;52.10
14475;DHT22;7323;50.848;4.334;2023-05-07T13:58:46;19.90;50.20
14475;DHT22;7323;50.848;4.334;2023-05-07T14:01:12;19.90;55.50
14475;DHT22;7323;50.848;4.334;2023-05-07T14:03:38;19.90;51.70
14475;DHT22;7323;50.848;4.334;2023-05-07T14:06:05;19.90;51.80
14475;DHT22;7323;50.848;4.334;2023-05-07T14:08:30;19.90;48.00
14475;DHT22;7323;50.848;4.334;2023-05-07T14:10:59;19.70;49.30
14475;DHT22;7323;50.848;4.334;2023-05-07T14:13:25;19.50;52.20
14475;DHT22;7323;50.848;4.334;2023-05-07T14:15:52;19.50;52.40
14475;DHT22;7323;50.848;4.334;2023-05-07T14:18:17;19.50;58.90
14475;DHT22;7323;50.848;4.334;2023-05-07T14:20:43;19.60;54.60
14475;DHT22;7323;50.848;4.334;2023-05-07T14:23:11;19.60;58.60
14475;DHT22;7323;50.848;4.334;2023-05-07T14:25:36;19.70;57.70
14475;DHT22;7323;50.848;4.334;2023-05-07T14:28:02;19.70;61.20
14475;DHT22;7323;50.848;4.334;2023-05-07T14:30:28;19.80;61.70
14475;DHT22;7323;50.848;4.334;2023-05-07T14:32:53;19.90;60.80
14475;DHT22;7323;50.848;4.334;2023-05-07T14:35:21;20.10;57.30
14475;DHT22;7323;50.848;4.334;2023-05-07T14:37:48;20.30;49.90
14475;DHT22;7323;50.848;4.334;2023-05-07T14:40:17;20.50;44.90
14475;DHT22;7323;50.848;4.334;2023-05-07T14:42:45;20.50;37.80
14475;DHT22;7323;50.848;4.334;2023-05-07T14:45:11;20.70;37.80
14475;DHT22;7323;50.848;4.334;2023-05-07T14:47:59;20.70;28.70
14475;DHT22;7323;50.848;4.334;2023-05-07T14:50:32;20.70;29.80
14475;DHT22;7323;50.848;4.334;2023-05-07T14:52:59;20.60;30.70
14475;DHT22;7323;50.848;4.334;2023-05-07T14:55:35;20.60;33.80
14475;DHT22;7323;50.848;4.334;2023-05-07T14:58:07;20.50;32.80
14475;DHT22;7323;50.848;4.334;2023-05-07T15:00:33;20.40;33.10
14475;DHT22;7323;50.848;4.334;2023-05-07T15:03:10;20.20;45.00
14475;DHT22;7323;50.848;4.334;2023-05-07T15:05:41;20.20;43.20
14475;DHT22;7323;50.848;4.334;2023-05-07T15:08:07;20.10;47.50
14475;DHT22;7323;50.848;4.334;2023-05-07T15:10:36;20.20;44.80
14475;DHT22;7323;50.848;4.334;2023-05-07T15:13:06;20.20;36.70
14475;DHT22;7323;50.848;4.334;2023-05-07T15:15:32;20.30;36.70
14475;DHT22;7323;50.848;4.334;2023-05-07T15:17:58;20.30;42.10
14475;DHT22;7323;50.848;4.334;2023-05-07T15:20:26;20.20;44.00
14475;DHT22;7323;50.848;4.334;2023-05-07T15:22:52;20.00;43.60
14475;DHT22;7323;50.848;4.334;2023-05-07T15:25:17;20.10;39.00
14475;DHT22;7323;50.848;4.334;2023-05-07T15:27:43;20.20;43.00
14475;DHT22;7323;50.848;4.334;2023-05-07T15:30:09;20.00;52.40
14475;DHT22;7323;50.848;4.334;2023-05-07T15:32:37;19.80;56.70
14475;DHT22;7323;50.848;4.334;2023-05-07T15:35:05;19.70;61.70
14475;DHT22;7323;50.848;4.334;2023-05-07T15:37:31;19.60;65.20
14475;DHT22;7323;50.848;4.334;2023-05-07T15:39:57;19.60;65.90
14475;DHT22;7323;50.848;4.334;2023-05-07T15:42:23;19.80;59.70
14475;DHT22;7323;50.848;4.334;2023-05-07T15:44:50;19.90;55.60
14475;DHT22;7323;50.848;4.334;2023-05-07T15:47:16;20.00;47.50
14475;DHT22;7323;50.848;4.334;2023-05-07T15:49:42;20.00;46.00
14475;DHT22;7323;50.848;4.334;2023-05-07T15:52:08;20.10;49.60
14475;DHT22;7323;50.848;4.334;2023-05-07T15:54:39;19.90;57.40
14475;DHT22;7323;50.848;4.334;2023-05-07T15:57:05;19.80;55.30
14475;DHT22;7323;50.848;4.334;2023-05-07T15:59:33;19.90;53.90
14475;DHT22;7323;50.848;4.334;2023-05-07T16:02:00;20.00;53.80
14475;DHT22;7323;50.848;4.334;2023-05-07T16:04:26;19.90;58.30
14475;DHT22;7323;50.848;4.334;2023-05-07T16:06:53;19.80;64.30
14475;DHT22;7323;50.848;4.334;2023-05-07T16:09:19;19.80;62.20
14475;DHT22;7323;50.848;4.334;2023-05-07T16:11:46;19.80;63.30